sensor_id;sensor_type;location;lat;lon;timestamp;P1;durP1;ratioP1;P2;durP2;ratioP2
32826;SDS011;51059;42.058;27.986;2023-02-28T00:01:19;23.83;;;12.37;;
32826;SDS011;51059;42.058;27.986;2023-02-28T00:03:45;26.20;;;12.80;;
32826;SDS011;51059;42.058;27.986;2023-02-28T00:06:10;24.20;;;13.50;;
32826;SDS011;51059;42.058;27.986;2023-02-28T00:08:36;24.03;;;12.80;;
32826;SDS011;51059;42.058;27.986;2023-02-28T00:11:03;21.23;;;12.50;;
32826;SDS011;51059;42.058;27.986;2023-02-28T00:13:34;25.10;;;13.13;;
32826;SDS011;51059;42.058;27.986;2023-02-28T00:16:05;21.93;;;12.23;;
32826;SDS011;51059;42.058;27.986;2023-02-28T00:18:33;27.80;;;13.17;;
32826;SDS011;51059;42.058;27.986;2023-02-28T00:20:58;28.17;;;12.97;;
32826;SDS011;51059;42.058;27.986;2023-02-28T00:23:25;19.07;;;11.97;;
32826;SDS011;51059;42.058;27.986;2023-02-28T00:25:51;23.37;;;12.47;;
32826;SDS011;51059;42.058;27.986;2023-02-28T00:28:17;25.30;;;12.67;;
32826;SDS011;51059;42.058;27.986;2023-02-28T00:30:43;22.87;;;12.20;;
32826;SDS011;51059;42.058;27.986;2023-02-28T00:33:09;21.20;;;12.00;;
32826;SDS011;51059;42.058;27.986;2023-02-28T00:35:34;27.37;;;13.03;;
32826;SDS011;51059;42.058;27.986;2023-02-28T00:38:00;24.90;;;12.23;;
32826;SDS011;51059;42.058;27.986;2023-02-28T00:40:26;20.97;;;12.17;;
32826;SDS011;51059;42.058;27.986;2023-02-28T00:42:51;22.57;;;13.00;;
32826;SDS011;51059;42.058;27.986;2023-02-28T00:45:17;25.80;;;12.93;;
32826;SDS011;51059;42.058;27.986;2023-02-28T00:47:43;31.87;;;12.90;;
32826;SDS011;51059;42.058;27.986;2023-02-28T00:50:09;20.63;;;11.77;;
32826;SDS011;51059;42.058;27.986;2023-02-28T00:52:35;23.07;;;12.30;;
32826;SDS011;51059;42.058;27.986;2023-02-28T00:55:00;26.23;;;12.40;;
32826;SDS011;51059;42.058;27.986;2023-02-28T00:57:26;23.43;;;12.83;;
32826;SDS011;51059;42.058;27.986;2023-02-28T00:59:52;25.80;;;12.70;;
32826;SDS011;51059;42.058;27.986;2023-02-28T01:02:19;25.93;;;13.10;;
32826;SDS011;51059;42.058;27.986;2023-02-28T01:04:46;23.67;;;13.03;;
32826;SDS011;51059;42.058;27.986;2023-02-28T01:07:12;24.67;;;12.07;;
32826;SDS011;51059;42.058;27.986;2023-02-28T01:09:39;22.40;;;12.53;;
32826;SDS011;51059;42.058;27.986;2023-02-28T01:12:06;23.40;;;12.07;;
32826;SDS011;51059;42.058;27.986;2023-02-28T01:14:32;22.63;;;11.90;;
32826;SDS011;51059;42.058;27.986;2023-02-28T01:16:58;33.17;;;11.23;;
32826;SDS011;51059;42.058;27.986;2023-02-28T01:19:24;20.60;;;12.10;;
32826;SDS011;51059;42.058;27.986;2023-02-28T01:21:49;25.20;;;12.13;;
32826;SDS011;51059;42.058;27.986;2023-02-28T01:24:15;19.67;;;11.93;;
32826;SDS011;51059;42.058;27.986;2023-02-28T01:26:40;28.23;;;12.13;;
32826;SDS011;51059;42.058;27.986;2023-02-28T01:29:06;21.53;;;12.17;;
32826;SDS011;51059;42.058;27.986;2023-02-28T01:31:32;23.83;;;11.73;;
32826;SDS011;51059;42.058;27.986;2023-02-28T01:33:57;20.27;;;11.87;;
32826;SDS011;51059;42.058;27.986;2023-02-28T01:36:23;19.70;;;11.07;;
32826;SDS011;51059;42.058;27.986;2023-02-28T01:38:49;29.60;;;12.27;;
32826;SDS011;51059;42.058;27.986;2023-02-28T01:41:18;25.40;;;11.90;;
32826;SDS011;51059;42.058;27.986;2023-02-28T01:46:11;27.20;;;12.43;;
32826;SDS011;51059;42.058;27.986;2023-02-28T01:48:40;27.27;;;13.27;;
32826;SDS011;51059;42.058;27.986;2023-02-28T01:51:18;21.37;;;11.73;;
32826;SDS011;51059;42.058;27.986;2023-02-28T01:53:58;23.70;;;12.30;;
32826;SDS011;51059;42.058;27.986;2023-02-28T01:56:27;22.53;;;12.43;;
32826;SDS011;51059;42.058;27.986;2023-02-28T01:58:54;24.33;;;11.80;;
32826;SDS011;51059;42.058;27.986;2023-02-28T02:01:20;20.70;;;11.37;;
32826;SDS011;51059;42.058;27.986;2023-02-28T02:03:48;18.13;;;10.97;;
32826;SDS011;51059;42.058;27.986;2023-02-28T02:06:20;21.20;;;11.67;;
32826;SDS011;51059;42.058;27.986;2023-02-28T02:09:05;26.33;;;11.93;;
32826;SDS011;51059;42.058;27.986;2023-02-28T02:11:31;26.90;;;12.07;;
32826;SDS011;51059;42.058;27.986;2023-02-28T02:19:23;25.13;;;11.97;;
32826;SDS011;51059;42.058;27.986;2023-02-28T02:27:26;23.17;;;11.83;;
32826;SDS011;51059;42.058;27.986;2023-02-28T02:36:02;29.63;;;12.57;;
32826;SDS011;51059;42.058;27.986;2023-02-28T02:38:35;25.57;;;11.60;;
32826;SDS011;51059;42.058;27.986;2023-02-28T02:41:34;15.40;;;7.87;;
32826;SDS011;51059;42.058;27.986;2023-02-28T02:46:57;18.43;;;7.00;;
32826;SDS011;51059;42.058;27.986;2023-02-28T02:49:26;14.70;;;7.17;;
32826;SDS011;51059;42.058;27.986;2023-02-28T02:51:54;18.53;;;7.80;;
32826;SDS011;51059;42.058;27.986;2023-02-28T02:54:23;15.37;;;6.93;;
32826;SDS011;51059;42.058;27.986;2023-02-28T02:56:53;14.97;;;6.40;;
32826;SDS011;51059;42.058;27.986;2023-02-28T02:59:22;19.60;;;7.53;;
32826;SDS011;51059;42.058;27.986;2023-02-28T03:01:50;15.80;;;6.60;;
32826;SDS011;51059;42.058;27.986;2023-02-28T03:04:19;17.27;;;7.57;;
32826;SDS011;51059;42.058;27.986;2023-02-28T03:06:45;20.40;;;7.97;;
32826;SDS011;51059;42.058;27.986;2023-02-28T03:09:11;22.37;;;7.90;;
32826;SDS011;51059;42.058;27.986;2023-02-28T03:11:37;18.47;;;8.10;;
32826;SDS011;51059;42.058;27.986;2023-02-28T03:19:55;24.87;;;9.03;;
32826;SDS011;51059;42.058;27.986;2023-02-28T03:25:21;20.63;;;7.03;;
32826;SDS011;51059;42.058;27.986;2023-02-28T03:28:09;17.70;;;7.07;;
32826;SDS011;51059;42.058;27.986;2023-02-28T03:30:51;21.53;;;7.83;;
32826;SDS011;51059;42.058;27.986;2023-02-28T03:33:33;16.03;;;6.77;;
32826;SDS011;51059;42.058;27.986;2023-02-28T03:36:08;18.27;;;7.83;;
32826;SDS011;51059;42.058;27.986;2023-02-28T03:38:41;19.53;;;6.47;;
32826;SDS011;51059;42.058;27.986;2023-02-28T03:41:19;23.30;;;7.37;;
32826;SDS011;51059;42.058;27.986;2023-02-28T03:43:50;13.27;;;7.07;;
32826;SDS011;51059;42.058;27.986;2023-02-28T03:46:23;18.70;;;7.90;;
32826;SDS011;51059;42.058;27.986;2023-02-28T03:48:55;21.33;;;7.40;;
32826;SDS011;51059;42.058;27.986;2023-02-28T03:51:42;18.33;;;7.23;;
32826;SDS011;51059;42.058;27.986;2023-02-28T03:54:12;19.93;;;7.50;;
32826;SDS011;51059;42.058;27.986;2023-02-28T03:56:51;19.10;;;7.30;;
32826;SDS011;51059;42.058;27.986;2023-02-28T03:59:43;18.57;;;7.73;;
32826;SDS011;51059;42.058;27.986;2023-02-28T04:02:10;15.70;;;6.80;;
32826;SDS011;51059;42.058;27.986;2023-02-28T04:04:35;15.80;;;8.33;;
32826;SDS011;51059;42.058;27.986;2023-02-28T04:07:05;21.30;;;8.23;;
32826;SDS011;51059;42.058;27.986;2023-02-28T04:09:32;20.43;;;8.00;;
32826;SDS011;51059;42.058;27.986;2023-02-28T04:11:58;14.80;;;8.30;;
32826;SDS011;51059;42.058;27.986;2023-02-28T04:14:23;20.13;;;7.90;;
32826;SDS011;51059;42.058;27.986;2023-02-28T04:16:49;16.87;;;7.07;;
32826;SDS011;51059;42.058;27.986;2023-02-28T04:19:16;17.43;;;7.63;;
32826;SDS011;51059;42.058;27.986;2023-02-28T04:21:44;20.63;;;7.87;;
32826;SDS011;51059;42.058;27.986;2023-02-28T04:24:13;17.23;;;8.60;;
32826;SDS011;51059;42.058;27.986;2023-02-28T04:26:41;19.77;;;8.37;;
32826;SDS011;51059;42.058;27.986;2023-02-28T04:29:09;19.17;;;9.13;;
32826;SDS011;51059;42.058;27.986;2023-02-28T04:31:36;19.23;;;8.30;;
32826;SDS011;51059;42.058;27.986;2023-02-28T04:34:01;25.37;;;9.00;;
32826;SDS011;51059;42.058;27.986;2023-02-28T04:36:27;21.07;;;9.70;;
32826;SDS011;51059;42.058;27.986;2023-02-28T04:38:53;28.33;;;11.10;;
32826;SDS011;51059;42.058;27.986;2023-02-28T04:41:19;25.33;;;11.60;;
32826;SDS011;51059;42.058;27.986;2023-02-28T04:43:45;24.63;;;11.40;;
32826;SDS011;51059;42.058;27.986;2023-02-28T04:46:11;23.70;;;11.97;;
32826;SDS011;51059;42.058;27.986;2023-02-28T04:48:37;29.97;;;11.90;;
32826;SDS011;51059;42.058;27.986;2023-02-28T04:51:05;26.83;;;11.50;;
32826;SDS011;51059;42.058;27.986;2023-02-28T04:53:32;26.63;;;11.33;;
32826;SDS011;51059;42.058;27.986;2023-02-28T04:55:59;30.00;;;11.83;;
32826;SDS011;51059;42.058;27.986;2023-02-28T04:58:25;31.27;;;12.03;;
32826;SDS011;51059;42.058;27.986;2023-02-28T05:00:53;32.17;;;12.53;;
32826;SDS011;51059;42.058;27.986;2023-02-28T05:03:20;25.37;;;11.43;;
32826;SDS011;51059;42.058;27.986;2023-02-28T05:05:47;31.93;;;12.33;;
32826;SDS011;51059;42.058;27.986;2023-02-28T05:08:12;28.30;;;12.30;;
32826;SDS011;51059;42.058;27.986;2023-02-28T05:10:38;36.17;;;15.27;;
32826;SDS011;51059;42.058;27.986;2023-02-28T05:13:04;28.30;;;12.90;;
32826;SDS011;51059;42.058;27.986;2023-02-28T05:15:29;32.07;;;13.67;;
32826;SDS011;51059;42.058;27.986;2023-02-28T05:17:55;37.37;;;13.67;;
32826;SDS011;51059;42.058;27.986;2023-02-28T05:20:20;30.07;;;14.10;;
32826;SDS011;51059;42.058;27.986;2023-02-28T05:22:46;27.97;;;12.57;;
32826;SDS011;51059;42.058;27.986;2023-02-28T05:25:13;28.03;;;13.13;;
32826;SDS011;51059;42.058;27.986;2023-02-28T05:27:42;29.57;;;13.77;;
32826;SDS011;51059;42.058;27.986;2023-02-28T05:30:08;33.57;;;14.67;;
32826;SDS011;51059;42.058;27.986;2023-02-28T05:32:37;26.90;;;13.07;;
32826;SDS011;51059;42.058;27.986;2023-02-28T05:35:04;30.60;;;14.13;;
32826;SDS011;51059;42.058;27.986;2023-02-28T05:37:30;32.50;;;13.80;;
32826;SDS011;51059;42.058;27.986;2023-02-28T05:39:55;28.90;;;13.97;;
32826;SDS011;51059;42.058;27.986;2023-02-28T05:42:21;34.03;;;13.70;;
32826;SDS011;51059;42.058;27.986;2023-02-28T05:44:46;25.00;;;12.77;;
32826;SDS011;51059;42.058;27.986;2023-02-28T05:47:12;23.97;;;12.10;;
32826;SDS011;51059;42.058;27.986;2023-02-28T05:49:40;30.60;;;13.77;;
32826;SDS011;51059;42.058;27.986;2023-02-28T05:52:06;30.53;;;13.63;;
32826;SDS011;51059;42.058;27.986;2023-02-28T05:54:32;27.13;;;13.57;;
32826;SDS011;51059;42.058;27.986;2023-02-28T05:56:57;21.40;;;12.27;;
32826;SDS011;51059;42.058;27.986;2023-02-28T05:59:23;25.73;;;13.13;;
32826;SDS011;51059;42.058;27.986;2023-02-28T06:01:49;25.00;;;13.33;;
32826;SDS011;51059;42.058;27.986;2023-02-28T06:04:15;33.13;;;16.20;;
32826;SDS011;51059;42.058;27.986;2023-02-28T06:06:44;35.13;;;18.20;;
32826;SDS011;51059;42.058;27.986;2023-02-28T06:09:10;36.07;;;22.17;;
32826;SDS011;51059;42.058;27.986;2023-02-28T06:11:36;42.10;;;25.33;;
32826;SDS011;51059;42.058;27.986;2023-02-28T06:14:03;44.60;;;28.07;;
32826;SDS011;51059;42.058;27.986;2023-02-28T06:16:29;40.67;;;25.63;;
32826;SDS011;51059;42.058;27.986;2023-02-28T06:18:57;36.73;;;23.97;;
32826;SDS011;51059;42.058;27.986;2023-02-28T06:21:23;37.50;;;21.00;;
32826;SDS011;51059;42.058;27.986;2023-02-28T06:23:49;36.10;;;20.03;;
32826;SDS011;51059;42.058;27.986;2023-02-28T06:26:15;32.67;;;21.23;;
32826;SDS011;51059;42.058;27.986;2023-02-28T06:28:40;38.10;;;22.47;;
32826;SDS011;51059;42.058;27.986;2023-02-28T06:31:07;38.87;;;21.13;;
32826;SDS011;51059;42.058;27.986;2023-02-28T06:33:33;34.23;;;21.57;;
32826;SDS011;51059;42.058;27.986;2023-02-28T06:35:59;34.30;;;19.70;;
32826;SDS011;51059;42.058;27.986;2023-02-28T06:38:24;30.80;;;19.70;;
32826;SDS011;51059;42.058;27.986;2023-02-28T06:40:54;30.73;;;19.47;;
32826;SDS011;51059;42.058;27.986;2023-02-28T06:43:20;29.17;;;18.93;;
32826;SDS011;51059;42.058;27.986;2023-02-28T06:45:46;30.43;;;18.23;;
32826;SDS011;51059;42.058;27.986;2023-02-28T06:48:12;24.77;;;14.90;;
32826;SDS011;51059;42.058;27.986;2023-02-28T06:50:37;24.23;;;14.53;;
32826;SDS011;51059;42.058;27.986;2023-02-28T06:53:03;21.80;;;12.00;;
32826;SDS011;51059;42.058;27.986;2023-02-28T06:55:29;22.07;;;10.63;;
32826;SDS011;51059;42.058;27.986;2023-02-28T06:57:54;18.23;;;9.43;;
32826;SDS011;51059;42.058;27.986;2023-02-28T07:00:20;15.27;;;6.50;;
32826;SDS011;51059;42.058;27.986;2023-02-28T07:02:46;15.17;;;6.83;;
32826;SDS011;51059;42.058;27.986;2023-02-28T07:05:12;15.50;;;6.30;;
32826;SDS011;51059;42.058;27.986;2023-02-28T07:07:37;11.40;;;6.17;;
32826;SDS011;51059;42.058;27.986;2023-02-28T07:10:05;21.67;;;6.87;;
32826;SDS011;51059;42.058;27.986;2023-02-28T07:12:32;16.30;;;6.63;;
32826;SDS011;51059;42.058;27.986;2023-02-28T07:14:57;19.40;;;6.80;;
32826;SDS011;51059;42.058;27.986;2023-02-28T07:17:23;14.77;;;5.17;;
32826;SDS011;51059;42.058;27.986;2023-02-28T07:19:48;17.20;;;5.57;;
32826;SDS011;51059;42.058;27.986;2023-02-28T07:22:14;20.37;;;5.80;;
32826;SDS011;51059;42.058;27.986;2023-02-28T07:24:39;16.93;;;5.63;;
32826;SDS011;51059;42.058;27.986;2023-02-28T07:27:05;20.33;;;5.83;;
32826;SDS011;51059;42.058;27.986;2023-02-28T07:29:31;14.60;;;5.53;;
32826;SDS011;51059;42.058;27.986;2023-02-28T07:31:57;12.20;;;5.17;;
32826;SDS011;51059;42.058;27.986;2023-02-28T07:34:23;19.00;;;6.13;;
32826;SDS011;51059;42.058;27.986;2023-02-28T07:36:49;16.93;;;6.17;;
32826;SDS011;51059;42.058;27.986;2023-02-28T07:39:18;16.73;;;5.83;;
32826;SDS011;51059;42.058;27.986;2023-02-28T07:41:44;16.37;;;6.03;;
32826;SDS011;51059;42.058;27.986;2023-02-28T07:44:10;14.50;;;7.50;;
32826;SDS011;51059;42.058;27.986;2023-02-28T07:46:36;16.33;;;8.47;;
32826;SDS011;51059;42.058;27.986;2023-02-28T07:49:02;15.43;;;7.90;;
32826;SDS011;51059;42.058;27.986;2023-02-28T07:51:29;23.70;;;9.53;;
32826;SDS011;51059;42.058;27.986;2023-02-28T07:53:55;22.03;;;11.37;;
32826;SDS011;51059;42.058;27.986;2023-02-28T07:56:21;23.57;;;11.00;;
32826;SDS011;51059;42.058;27.986;2023-02-28T07:58:46;18.33;;;11.40;;
32826;SDS011;51059;42.058;27.986;2023-02-28T08:01:12;19.80;;;10.30;;
32826;SDS011;51059;42.058;27.986;2023-02-28T08:03:38;16.80;;;10.10;;
32826;SDS011;51059;42.058;27.986;2023-02-28T08:06:04;23.23;;;14.60;;
32826;SDS011;51059;42.058;27.986;2023-02-28T08:08:31;22.87;;;12.27;;
32826;SDS011;51059;42.058;27.986;2023-02-28T08:11:01;22.07;;;11.00;;
32826;SDS011;51059;42.058;27.986;2023-02-28T08:13:28;18.00;;;9.23;;
32826;SDS011;51059;42.058;27.986;2023-02-28T08:15:54;22.30;;;10.13;;
32826;SDS011;51059;42.058;27.986;2023-02-28T08:18:21;22.10;;;11.33;;
32826;SDS011;51059;42.058;27.986;2023-02-28T08:20:47;23.73;;;14.90;;
32826;SDS011;51059;42.058;27.986;2023-02-28T08:23:13;40.73;;;18.87;;
32826;SDS011;51059;42.058;27.986;2023-02-28T08:25:38;27.03;;;14.83;;
32826;SDS011;51059;42.058;27.986;2023-02-28T08:28:04;39.33;;;24.13;;
32826;SDS011;51059;42.058;27.986;2023-02-28T08:30:29;26.03;;;11.73;;
32826;SDS011;51059;42.058;27.986;2023-02-28T08:32:55;17.73;;;8.70;;
32826;SDS011;51059;42.058;27.986;2023-02-28T08:35:21;17.13;;;9.40;;
32826;SDS011;51059;42.058;27.986;2023-02-28T08:37:47;22.90;;;10.20;;
32826;SDS011;51059;42.058;27.986;2023-02-28T08:40:14;18.57;;;9.90;;
32826;SDS011;51059;42.058;27.986;2023-02-28T08:42:50;21.37;;;10.00;;
32826;SDS011;51059;42.058;27.986;2023-02-28T08:45:15;20.53;;;8.83;;
32826;SDS011;51059;42.058;27.986;2023-02-28T08:47:41;16.63;;;10.10;;
32826;SDS011;51059;42.058;27.986;2023-02-28T08:50:07;21.87;;;9.63;;
32826;SDS011;51059;42.058;27.986;2023-02-28T08:52:33;18.03;;;9.30;;
32826;SDS011;51059;42.058;27.986;2023-02-28T08:54:58;16.63;;;8.53;;
32826;SDS011;51059;42.058;27.986;2023-02-28T08:57:24;22.50;;;9.23;;
32826;SDS011;51059;42.058;27.986;2023-02-28T08:59:51;16.80;;;8.07;;
32826;SDS011;51059;42.058;27.986;2023-02-28T09:02:17;13.00;;;7.47;;
32826;SDS011;51059;42.058;27.986;2023-02-28T09:04:43;15.30;;;7.00;;
32826;SDS011;51059;42.058;27.986;2023-02-28T09:07:10;14.00;;;7.40;;
32826;SDS011;51059;42.058;27.986;2023-02-28T09:09:36;12.67;;;6.80;;
32826;SDS011;51059;42.058;27.986;2023-02-28T09:12:02;18.40;;;7.10;;
32826;SDS011;51059;42.058;27.986;2023-02-28T09:14:27;13.63;;;7.20;;
32826;SDS011;51059;42.058;27.986;2023-02-28T09:16:53;15.97;;;6.97;;
32826;SDS011;51059;42.058;27.986;2023-02-28T09:19:19;20.10;;;8.20;;
32826;SDS011;51059;42.058;27.986;2023-02-28T09:21:45;26.47;;;10.23;;
32826;SDS011;51059;42.058;27.986;2023-02-28T09:24:11;23.70;;;9.53;;
32826;SDS011;51059;42.058;27.986;2023-02-28T09:26:39;24.13;;;11.20;;
32826;SDS011;51059;42.058;27.986;2023-02-28T09:29:05;28.30;;;12.70;;
32826;SDS011;51059;42.058;27.986;2023-02-28T09:31:31;26.23;;;13.03;;
32826;SDS011;51059;42.058;27.986;2023-02-28T09:33:58;26.73;;;12.70;;
32826;SDS011;51059;42.058;27.986;2023-02-28T09:36:24;26.90;;;13.07;;
32826;SDS011;51059;42.058;27.986;2023-02-28T09:38:51;21.20;;;11.30;;
32826;SDS011;51059;42.058;27.986;2023-02-28T09:41:25;18.73;;;11.27;;
32826;SDS011;51059;42.058;27.986;2023-02-28T09:43:56;20.03;;;10.40;;
32826;SDS011;51059;42.058;27.986;2023-02-28T09:48:57;21.17;;;8.73;;
32826;SDS011;51059;42.058;27.986;2023-02-28T09:53:56;30.53;;;9.60;;
32826;SDS011;51059;42.058;27.986;2023-02-28T09:56:24;29.93;;;8.93;;
32826;SDS011;51059;42.058;27.986;2023-02-28T09:58:59;23.57;;;8.50;;
32826;SDS011;51059;42.058;27.986;2023-02-28T10:01:37;22.60;;;7.57;;
32826;SDS011;51059;42.058;27.986;2023-02-28T10:04:14;18.40;;;6.93;;
32826;SDS011;51059;42.058;27.986;2023-02-28T10:07:02;23.33;;;7.23;;
32826;SDS011;51059;42.058;27.986;2023-02-28T10:09:42;26.67;;;6.90;;
32826;SDS011;51059;42.058;27.986;2023-02-28T10:12:10;22.70;;;6.30;;
32826;SDS011;51059;42.058;27.986;2023-02-28T10:14:36;20.57;;;6.13;;
32826;SDS011;51059;42.058;27.986;2023-02-28T10:21:59;16.97;;;6.30;;
32826;SDS011;51059;42.058;27.986;2023-02-28T10:24:48;19.50;;;7.07;;
32826;SDS011;51059;42.058;27.986;2023-02-28T10:27:23;13.43;;;6.47;;
32826;SDS011;51059;42.058;27.986;2023-02-28T10:29:50;13.37;;;5.50;;
32826;SDS011;51059;42.058;27.986;2023-02-28T10:32:22;18.60;;;9.20;;
32826;SDS011;51059;42.058;27.986;2023-02-28T10:34:57;21.90;;;7.83;;
32826;SDS011;51059;42.058;27.986;2023-02-28T10:37:45;24.53;;;11.20;;
32826;SDS011;51059;42.058;27.986;2023-02-28T10:45:22;15.80;;;5.93;;
32826;SDS011;51059;42.058;27.986;2023-02-28T10:47:56;13.13;;;5.50;;
32826;SDS011;51059;42.058;27.986;2023-02-28T10:50:56;18.73;;;5.47;;
32826;SDS011;51059;42.058;27.986;2023-02-28T10:58:30;19.57;;;5.60;;
32826;SDS011;51059;42.058;27.986;2023-02-28T11:04:18;9.50;;;5.00;;
32826;SDS011;51059;42.058;27.986;2023-02-28T11:06:47;15.67;;;5.67;;
32826;SDS011;51059;42.058;27.986;2023-02-28T11:11:47;20.33;;;5.67;;
32826;SDS011;51059;42.058;27.986;2023-02-28T11:14:27;15.43;;;5.10;;
32826;SDS011;51059;42.058;27.986;2023-02-28T11:16:54;15.13;;;5.67;;
32826;SDS011;51059;42.058;27.986;2023-02-28T11:19:34;21.23;;;6.63;;
32826;SDS011;51059;42.058;27.986;2023-02-28T11:22:05;19.53;;;6.80;;
32826;SDS011;51059;42.058;27.986;2023-02-28T11:24:33;21.80;;;10.70;;
32826;SDS011;51059;42.058;27.986;2023-02-28T11:27:02;26.80;;;12.00;;
32826;SDS011;51059;42.058;27.986;2023-02-28T11:29:29;33.90;;;13.23;;
32826;SDS011;51059;42.058;27.986;2023-02-28T11:34:27;29.03;;;13.77;;
32826;SDS011;51059;42.058;27.986;2023-02-28T11:36:54;25.27;;;12.17;;
32826;SDS011;51059;42.058;27.986;2023-02-28T11:39:22;24.07;;;12.50;;
32826;SDS011;51059;42.058;27.986;2023-02-28T11:41:58;35.77;;;13.43;;
32826;SDS011;51059;42.058;27.986;2023-02-28T11:55:12;23.27;;;8.37;;
32826;SDS011;51059;42.058;27.986;2023-02-28T12:06:23;17.47;;;7.60;;
32826;SDS011;51059;42.058;27.986;2023-02-28T12:09:20;15.17;;;6.43;;
32826;SDS011;51059;42.058;27.986;2023-02-28T12:12:15;19.80;;;5.77;;
32826;SDS011;51059;42.058;27.986;2023-02-28T12:14:50;19.97;;;6.20;;
32826;SDS011;51059;42.058;27.986;2023-02-28T12:20:05;31.00;;;7.20;;
32826;SDS011;51059;42.058;27.986;2023-02-28T12:22:47;17.63;;;6.83;;
32826;SDS011;51059;42.058;27.986;2023-02-28T12:25:35;21.87;;;6.90;;
32826;SDS011;51059;42.058;27.986;2023-02-28T12:28:23;19.03;;;6.83;;
32826;SDS011;51059;42.058;27.986;2023-02-28T12:33:20;24.67;;;7.23;;
32826;SDS011;51059;42.058;27.986;2023-02-28T12:35:49;23.07;;;7.60;;
32826;SDS011;51059;42.058;27.986;2023-02-28T12:46:55;26.47;;;8.03;;
32826;SDS011;51059;42.058;27.986;2023-02-28T12:49:26;21.90;;;8.90;;
32826;SDS011;51059;42.058;27.986;2023-02-28T12:51:56;23.63;;;9.07;;
32826;SDS011;51059;42.058;27.986;2023-02-28T12:54:36;22.57;;;9.03;;
32826;SDS011;51059;42.058;27.986;2023-02-28T13:00:15;25.07;;;9.97;;
32826;SDS011;51059;42.058;27.986;2023-02-28T13:10:46;26.40;;;10.17;;
32826;SDS011;51059;42.058;27.986;2023-02-28T13:13:18;25.50;;;9.90;;
32826;SDS011;51059;42.058;27.986;2023-02-28T13:16:19;24.83;;;9.70;;
32826;SDS011;51059;42.058;27.986;2023-02-28T13:18:38;28.27;;;10.83;;
32826;SDS011;51059;42.058;27.986;2023-02-28T13:21:09;27.60;;;10.47;;
32826;SDS011;51059;42.058;27.986;2023-02-28T13:29:01;18.57;;;8.83;;
32826;SDS011;51059;42.058;27.986;2023-02-28T13:34:39;19.47;;;9.30;;
32826;SDS011;51059;42.058;27.986;2023-02-28T13:39:54;20.67;;;9.63;;
32826;SDS011;51059;42.058;27.986;2023-02-28T13:50:19;24.17;;;11.40;;
32826;SDS011;51059;42.058;27.986;2023-02-28T14:11:38;21.43;;;10.90;;
32826;SDS011;51059;42.058;27.986;2023-02-28T14:14:05;25.43;;;10.63;;
32826;SDS011;51059;42.058;27.986;2023-02-28T14:16:45;29.30;;;11.20;;
32826;SDS011;51059;42.058;27.986;2023-02-28T14:21:38;30.30;;;11.93;;
32826;SDS011;51059;42.058;27.986;2023-02-28T14:38:05;25.07;;;10.87;;
32826;SDS011;51059;42.058;27.986;2023-02-28T14:40:33;30.10;;;11.80;;
32826;SDS011;51059;42.058;27.986;2023-02-28T14:43:03;32.77;;;15.17;;
32826;SDS011;51059;42.058;27.986;2023-02-28T14:45:30;26.77;;;12.00;;
32826;SDS011;51059;42.058;27.986;2023-02-28T14:47:58;38.30;;;16.97;;
32826;SDS011;51059;42.058;27.986;2023-02-28T14:50:29;34.80;;;14.53;;
32826;SDS011;51059;42.058;27.986;2023-02-28T14:52:56;33.07;;;13.63;;
32826;SDS011;51059;42.058;27.986;2023-02-28T14:55:26;24.90;;;11.07;;
32826;SDS011;51059;42.058;27.986;2023-02-28T14:57:58;35.03;;;11.50;;
32826;SDS011;51059;42.058;27.986;2023-02-28T15:00:26;27.97;;;12.40;;
32826;SDS011;51059;42.058;27.986;2023-02-28T15:02:53;29.67;;;14.00;;
32826;SDS011;51059;42.058;27.986;2023-02-28T15:08:00;25.73;;;12.17;;
32826;SDS011;51059;42.058;27.986;2023-02-28T15:10:29;28.40;;;12.50;;
32826;SDS011;51059;42.058;27.986;2023-02-28T15:12:57;32.07;;;13.33;;
32826;SDS011;51059;42.058;27.986;2023-02-28T15:15:25;31.47;;;11.63;;
32826;SDS011;51059;42.058;27.986;2023-02-28T15:17:58;28.93;;;13.10;;
32826;SDS011;51059;42.058;27.986;2023-02-28T15:20:24;38.50;;;13.17;;
32826;SDS011;51059;42.058;27.986;2023-02-28T15:22:51;29.27;;;11.33;;
32826;SDS011;51059;42.058;27.986;2023-02-28T15:25:18;30.53;;;11.57;;
32826;SDS011;51059;42.058;27.986;2023-02-28T15:27:46;30.53;;;10.80;;
32826;SDS011;51059;42.058;27.986;2023-02-28T15:30:16;37.10;;;12.07;;
32826;SDS011;51059;42.058;27.986;2023-02-28T15:32:44;30.60;;;11.40;;
32826;SDS011;51059;42.058;27.986;2023-02-28T15:37:55;26.87;;;10.70;;
32826;SDS011;51059;42.058;27.986;2023-02-28T15:43:13;27.90;;;11.93;;
32826;SDS011;51059;42.058;27.986;2023-02-28T15:45:50;27.57;;;9.93;;
32826;SDS011;51059;42.058;27.986;2023-02-28T15:48:20;39.77;;;11.83;;
32826;SDS011;51059;42.058;27.986;2023-02-28T15:50:47;27.77;;;12.00;;
32826;SDS011;51059;42.058;27.986;2023-02-28T15:53:16;31.47;;;11.37;;
32826;SDS011;51059;42.058;27.986;2023-02-28T15:55:43;30.50;;;11.87;;
32826;SDS011;51059;42.058;27.986;2023-02-28T15:58:09;33.80;;;11.67;;
32826;SDS011;51059;42.058;27.986;2023-02-28T16:00:38;31.73;;;11.37;;
32826;SDS011;51059;42.058;27.986;2023-02-28T16:03:22;36.43;;;11.70;;
32826;SDS011;51059;42.058;27.986;2023-02-28T16:06:07;29.57;;;11.00;;
32826;SDS011;51059;42.058;27.986;2023-02-28T16:08:53;26.03;;;10.53;;
32826;SDS011;51059;42.058;27.986;2023-02-28T16:11:20;23.17;;;10.93;;
32826;SDS011;51059;42.058;27.986;2023-02-28T16:13:46;22.57;;;10.53;;
32826;SDS011;51059;42.058;27.986;2023-02-28T16:16:19;27.10;;;10.57;;
32826;SDS011;51059;42.058;27.986;2023-02-28T16:18:46;22.77;;;9.90;;
32826;SDS011;51059;42.058;27.986;2023-02-28T16:21:13;29.13;;;11.00;;
32826;SDS011;51059;42.058;27.986;2023-02-28T16:23:39;37.67;;;11.40;;
32826;SDS011;51059;42.058;27.986;2023-02-28T16:26:05;27.03;;;10.60;;
32826;SDS011;51059;42.058;27.986;2023-02-28T16:28:32;30.60;;;11.43;;
32826;SDS011;51059;42.058;27.986;2023-02-28T16:30:59;24.20;;;10.90;;
32826;SDS011;51059;42.058;27.986;2023-02-28T16:33:28;35.93;;;10.00;;
32826;SDS011;51059;42.058;27.986;2023-02-28T16:35:54;26.97;;;10.70;;
32826;SDS011;51059;42.058;27.986;2023-02-28T16:38:19;34.53;;;12.00;;
32826;SDS011;51059;42.058;27.986;2023-02-28T16:40:46;28.80;;;11.17;;
32826;SDS011;51059;42.058;27.986;2023-02-28T16:43:18;31.10;;;11.43;;
32826;SDS011;51059;42.058;27.986;2023-02-28T16:45:46;22.87;;;11.20;;
32826;SDS011;51059;42.058;27.986;2023-02-28T16:48:13;26.80;;;11.30;;
32826;SDS011;51059;42.058;27.986;2023-02-28T16:50:40;27.00;;;11.67;;
32826;SDS011;51059;42.058;27.986;2023-02-28T16:53:07;29.67;;;11.33;;
32826;SDS011;51059;42.058;27.986;2023-02-28T16:55:33;22.93;;;10.10;;
32826;SDS011;51059;42.058;27.986;2023-02-28T16:58:00;19.47;;;10.87;;
32826;SDS011;51059;42.058;27.986;2023-02-28T17:00:27;20.77;;;9.73;;
32826;SDS011;51059;42.058;27.986;2023-02-28T17:02:54;21.13;;;10.77;;
32826;SDS011;51059;42.058;27.986;2023-02-28T17:05:21;23.63;;;11.13;;
32826;SDS011;51059;42.058;27.986;2023-02-28T17:07:47;22.43;;;10.90;;
32826;SDS011;51059;42.058;27.986;2023-02-28T17:10:24;28.27;;;11.97;;